createdAt,value
2023-03-29T00:00:46.099Z,58.17
2023-03-29T00:01:46.111Z,58.97
2023-03-29T00:02:46.153Z,57.52
2023-03-29T00:03:46.158Z,56.56
2023-03-29T00:04:46.178Z,57.20
2023-03-29T00:05:46.137Z,58.33
2023-03-29T00:06:46.069Z,55.91
2023-03-29T00:07:46.056Z,56.56
2023-03-29T00:08:46.049Z,56.40
2023-03-29T00:09:46.149Z,56.56
2023-03-29T00:10:46.044Z,56.24
2023-03-29T00:11:46.095Z,57.20
2023-03-29T00:12:46.040Z,56.72
2023-03-29T00:13:46.021Z,57.04
2023-03-29T00:14:46.049Z,56.07
2023-03-29T00:15:46.024Z,55.91
2023-03-29T00:16:46.002Z,58.01
2023-03-29T00:17:46.063Z,59.30
2023-03-29T00:18:46.008Z,56.40
2023-03-29T00:19:45.976Z,56.72
2023-03-29T00:21:22.097Z,56.24
2023-03-29T00:21:45.966Z,56.40
2023-03-29T00:22:45.999Z,61.07
2023-03-29T00:23:46.019Z,57.69
2023-03-29T00:24:45.945Z,57.04
2023-03-29T00:25:45.932Z,60.75
2023-03-29T00:26:45.928Z,59.30
2023-03-29T00:27:45.897Z,70.74
2023-03-29T00:28:45.896Z,58.33
2023-03-29T00:29:45.929Z,56.40
2023-03-29T00:30:45.900Z,56.07
2023-03-29T00:31:46.037Z,56.40
2023-03-29T00:32:45.954Z,56.56
2023-03-29T00:33:45.871Z,55.75
2023-03-29T00:34:45.925Z,57.04
2023-03-29T00:35:45.955Z,65.74
2023-03-29T00:36:45.864Z,58.17
2023-03-29T00:37:45.867Z,55.75
2023-03-29T00:38:45.855Z,57.85
2023-03-29T00:39:45.834Z,60.91
2023-03-29T00:40:45.817Z,60.91
2023-03-29T00:41:45.868Z,55.91
2023-03-29T00:42:45.816Z,56.40
2023-03-29T00:43:45.791Z,55.43
2023-03-29T00:44:45.798Z,56.72
2023-03-29T00:45:45.820Z,57.20
2023-03-29T00:46:45.809Z,72.51
2023-03-29T00:47:46.310Z,66.71
2023-03-29T00:48:45.757Z,57.69
2023-03-29T00:49:45.786Z,56.07
2023-03-29T00:50:45.758Z,55.91
2023-03-29T00:51:45.769Z,55.59
2023-03-29T00:52:45.753Z,55.59
2023-03-29T00:53:45.799Z,56.07
2023-03-29T00:54:45.735Z,55.75
2023-03-29T00:55:45.752Z,57.04
2023-03-29T00:56:45.806Z,55.43
2023-03-29T00:57:45.706Z,55.43
2023-03-29T00:58:45.705Z,55.43
2023-03-29T00:59:45.729Z,57.69
2023-03-29T01:00:45.699Z,55.59
2023-03-29T01:01:45.738Z,55.75
2023-03-29T01:02:45.718Z,55.43
2023-03-29T01:03:45.743Z,55.59
2023-03-29T01:04:45.666Z,55.75
2023-03-29T01:05:45.698Z,55.43
2023-03-29T01:06:45.670Z,55.75
2023-03-29T01:07:45.637Z,55.43
2023-03-29T01:08:45.653Z,55.91
2023-03-29T01:09:45.622Z,56.07
2023-03-29T01:10:45.610Z,55.75
2023-03-29T01:11:45.648Z,55.43
2023-03-29T01:12:45.601Z,55.59
2023-03-29T01:13:45.618Z,55.75
2023-03-29T01:14:45.614Z,56.24
2023-03-29T01:15:45.587Z,56.24
2023-03-29T01:16:45.694Z,55.43
2023-03-29T01:17:45.647Z,56.07
2023-03-29T01:18:45.561Z,56.40
2023-03-29T01:19:45.550Z,55.59
2023-03-29T01:20:45.581Z,55.75
2023-03-29T01:21:45.543Z,55.59
2023-03-29T01:22:45.562Z,56.24
2023-03-29T01:23:45.581Z,56.07
2023-03-29T01:24:45.532Z,55.91
2023-03-29T01:25:45.574Z,56.07
2023-03-29T01:26:45.532Z,55.91
2023-03-29T01:27:45.507Z,56.40
2023-03-29T01:28:45.510Z,55.91
2023-03-29T01:29:45.570Z,57.04
2023-03-29T01:30:45.508Z,55.59
2023-03-29T01:31:45.598Z,55.91
2023-03-29T01:32:45.581Z,55.59
2023-03-29T01:33:45.518Z,56.24
2023-03-29T01:34:45.452Z,56.56
2023-03-29T01:35:45.587Z,55.75
2023-03-29T01:36:45.453Z,55.91
2023-03-29T01:37:45.444Z,56.24
2023-03-29T01:38:45.430Z,55.75
2023-03-29T01:39:45.444Z,55.91
2023-03-29T01:40:45.415Z,55.43
2023-03-29T01:41:45.437Z,62.52
2023-03-29T01:42:45.408Z,56.24
2023-03-29T01:43:45.394Z,55.59
2023-03-29T01:44:45.415Z,56.88
2023-03-29T01:45:45.442Z,55.43
2023-03-29T01:46:45.399Z,55.75
2023-03-29T01:47:45.413Z,56.40
2023-03-29T01:48:45.365Z,57.52
2023-03-29T01:49:45.389Z,68.48
2023-03-29T01:50:45.344Z,55.27
2023-03-29T01:51:45.357Z,54.95
2023-03-29T01:52:45.348Z,55.75
2023-03-29T01:53:45.749Z,61.55
2023-03-29T01:54:45.313Z,55.27
2023-03-29T01:55:45.312Z,54.95
2023-03-29T01:56:45.333Z,56.24
2023-03-29T01:57:45.312Z,58.17
2023-03-29T01:58:45.296Z,55.91
2023-03-29T01:59:45.348Z,58.01
2023-03-29T02:00:45.288Z,55.27
2023-03-29T02:01:45.336Z,55.91
2023-03-29T02:02:45.398Z,55.59
2023-03-29T02:03:45.334Z,55.11
2023-03-29T02:04:45.273Z,55.59
2023-03-29T02:05:45.310Z,56.72
2023-03-29T02:06:45.245Z,61.87
2023-03-29T02:07:45.234Z,55.43
2023-03-29T02:08:45.239Z,55.27
2023-03-29T02:09:45.228Z,55.75
2023-03-29T02:10:45.222Z,66.55
2023-03-29T02:11:45.273Z,59.78
2023-03-29T02:12:45.180Z,56.24
2023-03-29T02:13:45.204Z,65.10
2023-03-29T02:14:45.178Z,57.20
2023-03-29T02:15:45.227Z,56.40
2023-03-29T02:16:45.174Z,55.59
2023-03-29T02:17:45.220Z,56.07
2023-03-29T02:18:45.170Z,56.24
2023-03-29T02:19:45.136Z,55.27
2023-03-29T02:20:45.176Z,55.91
2023-03-29T02:21:45.120Z,55.59
2023-03-29T02:22:45.127Z,55.75
2023-03-29T02:24:31.207Z,55.75
2023-03-29T02:24:45.144Z,55.11
2023-03-29T02:26:05.748Z,55.59
2023-03-29T02:26:46.122Z,55.27
2023-03-29T02:27:45.099Z,55.27
2023-03-29T02:28:45.119Z,55.27
2023-03-29T02:29:45.106Z,55.91
2023-03-29T02:30:45.114Z,55.91
2023-03-29T02:31:45.164Z,55.91
2023-03-29T02:32:45.133Z,55.91
2023-03-29T02:33:45.044Z,55.59
2023-03-29T02:34:45.062Z,55.59
2023-03-29T02:35:45.154Z,55.75
2023-03-29T02:36:45.063Z,55.91
2023-03-29T02:37:45.014Z,55.75
2023-03-29T02:38:45.033Z,55.75
2023-03-29T02:39:45.029Z,56.07
2023-03-29T02:40:45.005Z,56.40
2023-03-29T02:41:45.008Z,55.91
2023-03-29T02:42:45.003Z,64.78
2023-03-29T02:43:45.001Z,56.07
2023-03-29T02:44:45.010Z,56.88
2023-03-29T02:45:44.979Z,56.88
2023-03-29T02:46:44.961Z,60.26
2023-03-29T02:47:45.069Z,58.17
2023-03-29T02:48:44.958Z,56.40
2023-03-29T02:49:44.939Z,59.62
2023-03-29T02:50:44.933Z,63.65
2023-03-29T02:51:44.915Z,55.91
2023-03-29T02:52:44.928Z,55.91
2023-03-29T02:53:44.968Z,55.59
2023-03-29T02:54:44.910Z,55.75
2023-03-29T02:55:44.907Z,69.45
2023-03-29T02:56:45.012Z,62.04
2023-03-29T02:57:44.893Z,58.65
2023-03-29T02:58:44.880Z,55.59
2023-03-29T02:59:44.957Z,57.04
2023-03-29T03:00:44.868Z,56.24
2023-03-29T03:01:44.988Z,56.24
2023-03-29T03:02:44.933Z,56.56
2023-03-29T03:03:44.942Z,63.00
2023-03-29T03:04:44.840Z,55.91
2023-03-29T03:05:44.869Z,56.40
2023-03-29T03:06:44.808Z,56.88
2023-03-29T03:07:44.792Z,56.88
2023-03-29T03:08:44.813Z,57.04
2023-03-29T03:09:44.792Z,56.40
2023-03-29T03:10:44.781Z,56.56
2023-03-29T03:11:44.879Z,57.04
2023-03-29T03:12:46.424Z,57.85
2023-03-29T03:13:44.778Z,57.36
2023-03-29T03:14:44.776Z,57.69
2023-03-29T03:15:44.755Z,56.88
2023-03-29T03:16:44.858Z,56.24
2023-03-29T03:17:44.827Z,56.24
2023-03-29T03:18:44.765Z,56.40
2023-03-29T03:19:44.776Z,57.04
2023-03-29T03:20:44.728Z,57.20
2023-03-29T03:21:44.731Z,56.88
2023-03-29T03:22:44.729Z,57.52
2023-03-29T03:23:44.739Z,57.69
2023-03-29T03:24:44.706Z,58.17
2023-03-29T03:25:44.693Z,58.65
2023-03-29T03:26:44.665Z,58.01
2023-03-29T03:27:44.676Z,66.87
2023-03-29T03:28:44.676Z,62.84
2023-03-29T03:29:44.693Z,58.33
2023-03-29T03:30:44.664Z,58.65
2023-03-29T03:31:44.807Z,65.10
2023-03-29T03:32:44.722Z,63.33
2023-03-29T03:33:44.611Z,64.29
2023-03-29T03:34:44.601Z,65.10
2023-03-29T03:35:44.674Z,62.04
2023-03-29T03:36:44.615Z,64.13
2023-03-29T03:37:44.624Z,65.42
2023-03-29T03:38:44.602Z,66.55
2023-03-29T03:39:44.595Z,65.42
2023-03-29T03:40:44.568Z,70.90
2023-03-29T03:41:44.611Z,72.99
2023-03-29T03:42:44.605Z,70.58
2023-03-29T03:43:44.565Z,70.74
2023-03-29T03:44:44.538Z,74.77
2023-03-29T03:45:44.540Z,77.18
2023-03-29T03:46:44.537Z,77.67
2023-03-29T03:47:44.612Z,77.02
2023-03-29T03:48:44.533Z,76.54
2023-03-29T03:49:50.748Z,76.22
2023-03-29T03:50:44.505Z,74.44
2023-03-29T03:51:44.480Z,74.77
2023-03-29T03:52:44.502Z,73.96
2023-03-29T03:53:44.530Z,76.70
2023-03-29T03:54:44.465Z,76.38
2023-03-29T03:55:44.485Z,79.28
2023-03-29T03:56:44.476Z,79.28
2023-03-29T03:57:44.442Z,78.31
2023-03-29T03:58:44.455Z,80.24
2023-03-29T03:59:44.829Z,77.83
2023-03-29T04:00:44.424Z,77.34
2023-03-29T04:01:44.458Z,78.15
2023-03-29T04:02:44.490Z,77.83
2023-03-29T04:03:44.474Z,78.79
2023-03-29T04:04:44.426Z,80.73
2023-03-29T04:05:44.442Z,77.67
2023-03-29T04:06:44.398Z,79.44
2023-03-29T04:07:44.409Z,78.96
2023-03-29T04:08:44.386Z,76.86
2023-03-29T04:09:44.359Z,78.63
2023-03-29T04:10:44.356Z,79.28
2023-03-29T04:11:44.405Z,77.50
2023-03-29T04:12:44.376Z,79.12
2023-03-29T04:13:44.339Z,77.99
2023-03-29T04:14:44.353Z,78.63
2023-03-29T04:15:44.355Z,76.86
2023-03-29T04:16:44.347Z,77.99
2023-03-29T04:17:44.429Z,80.73
2023-03-29T04:18:44.495Z,79.60
2023-03-29T04:19:44.298Z,79.28
2023-03-29T04:20:44.291Z,78.96
2023-03-29T04:21:44.298Z,79.60
2023-03-29T04:22:44.283Z,67.03
2023-03-29T04:23:44.300Z,63.00
2023-03-29T04:24:44.282Z,67.35
2023-03-29T04:25:44.269Z,67.19
2023-03-29T04:26:44.242Z,64.29
2023-03-29T04:27:44.268Z,64.78
2023-03-29T04:28:44.242Z,65.26
2023-03-29T04:29:44.268Z,65.26
2023-03-29T04:30:44.244Z,65.74
2023-03-29T04:31:44.244Z,65.10
2023-03-29T04:32:44.239Z,64.45
2023-03-29T04:33:44.212Z,64.94
2023-03-29T04:34:44.197Z,65.42
2023-03-29T04:35:44.275Z,65.26
2023-03-29T04:36:44.188Z,69.45
2023-03-29T04:37:44.168Z,65.58
2023-03-29T04:38:47.319Z,64.45
2023-03-29T04:39:44.160Z,62.20
2023-03-29T04:40:44.357Z,64.78
2023-03-29T04:41:44.199Z,62.68
2023-03-29T04:42:44.150Z,63.97
2023-03-29T04:43:44.163Z,73.15
2023-03-29T04:44:44.224Z,71.70
2023-03-29T04:45:44.131Z,63.97
2023-03-29T04:46:44.167Z,62.20
2023-03-29T04:47:44.212Z,63.81
2023-03-29T04:48:44.157Z,68.00
2023-03-29T04:49:44.147Z,60.42
2023-03-29T04:50:44.096Z,67.19
2023-03-29T04:51:44.166Z,64.13
2023-03-29T04:52:44.193Z,63.49
2023-03-29T04:53:44.168Z,64.29
2023-03-29T04:54:44.068Z,63.65
2023-03-29T04:55:44.047Z,65.10
2023-03-29T04:56:44.077Z,65.74
2023-03-29T04:57:44.033Z,67.03
2023-03-29T04:58:44.050Z,66.06
2023-03-29T04:59:44.065Z,66.55
2023-03-29T05:00:44.022Z,65.26
2023-03-29T05:01:44.125Z,66.39
2023-03-29T05:02:44.099Z,69.13
2023-03-29T05:03:44.060Z,70.58
2023-03-29T05:04:44.021Z,68.16
2023-03-29T05:05:44.388Z,68.32
2023-03-29T05:06:43.968Z,66.06
2023-03-29T05:07:43.970Z,67.35
2023-03-29T05:08:43.974Z,67.84
2023-03-29T05:09:43.972Z,66.23
2023-03-29T05:10:43.940Z,64.45
2023-03-29T05:11:43.972Z,65.10
2023-03-29T05:12:43.951Z,66.23
2023-03-29T05:13:43.953Z,64.94
2023-03-29T05:14:43.924Z,65.42
2023-03-29T05:15:43.912Z,66.23
2023-03-29T05:16:43.984Z,64.78
2023-03-29T05:17:43.984Z,76.54
2023-03-29T05:18:43.879Z,61.87
2023-03-29T05:19:43.884Z,63.33
2023-03-29T05:20:43.883Z,65.58
2023-03-29T05:21:45.475Z,62.52
2023-03-29T05:22:43.858Z,69.45
2023-03-29T05:23:43.929Z,63.65
2023-03-29T05:24:43.856Z,68.96
2023-03-29T05:25:43.860Z,67.51
2023-03-29T05:26:43.832Z,67.19
2023-03-29T05:27:43.842Z,65.42
2023-03-29T05:28:43.863Z,68.00
2023-03-29T05:29:43.859Z,64.61
2023-03-29T05:30:43.802Z,66.06
2023-03-29T05:31:43.882Z,66.55
2023-03-29T05:32:43.830Z,63.81
2023-03-29T05:33:43.805Z,66.23
2023-03-29T05:34:43.820Z,64.45
2023-03-29T05:35:43.836Z,64.78
2023-03-29T05:36:43.839Z,64.13
2023-03-29T05:37:43.748Z,60.91
2023-03-29T05:38:43.761Z,73.32
2023-03-29T05:39:43.727Z,65.90
2023-03-29T05:40:43.752Z,66.55
2023-03-29T05:41:43.763Z,71.70
2023-03-29T05:42:43.731Z,66.71
2023-03-29T05:43:43.713Z,69.13
2023-03-29T05:44:43.748Z,66.55
2023-03-29T05:45:43.754Z,63.49
2023-03-29T05:46:43.707Z,67.19
2023-03-29T05:47:43.775Z,66.71
2023-03-29T05:48:43.685Z,65.10
2023-03-29T05:49:43.683Z,68.16
2023-03-29T05:50:46.228Z,66.23
2023-03-29T05:51:43.657Z,64.45
2023-03-29T05:52:43.645Z,65.10
2023-03-29T05:53:43.698Z,68.32
2023-03-29T05:54:43.628Z,71.22
2023-03-29T05:55:43.649Z,69.29
2023-03-29T05:56:43.663Z,64.94
2023-03-29T05:57:43.634Z,68.48
2023-03-29T05:58:43.640Z,67.03
2023-03-29T05:59:43.645Z,70.42
2023-03-29T06:00:43.583Z,64.45
2023-03-29T06:01:43.597Z,64.45
2023-03-29T06:02:43.675Z,65.90
2023-03-29T06:03:43.684Z,64.13
2023-03-29T06:04:43.618Z,63.81
2023-03-29T06:05:43.610Z,65.42
2023-03-29T06:06:43.568Z,64.45
2023-03-29T06:07:43.551Z,65.10
2023-03-29T06:08:43.562Z,65.10
2023-03-29T06:09:43.564Z,63.00
2023-03-29T06:10:43.532Z,64.94
2023-03-29T06:11:43.778Z,63.16
2023-03-29T06:12:43.552Z,68.64
2023-03-29T06:13:43.520Z,68.96
2023-03-29T06:14:43.512Z,65.26
2023-03-29T06:15:43.508Z,67.68
2023-03-29T06:16:43.594Z,63.33
2023-03-29T06:17:43.582Z,75.73
2023-03-29T06:18:43.491Z,77.50
2023-03-29T06:19:43.478Z,71.06
2023-03-29T06:20:43.456Z,67.84
2023-03-29T06:21:43.457Z,66.71
2023-03-29T06:22:43.469Z,65.90
2023-03-29T06:23:43.484Z,63.65
2023-03-29T06:24:43.433Z,66.23
2023-03-29T06:25:43.426Z,65.26
2023-03-29T06:26:43.448Z,61.71
2023-03-29T06:27:43.406Z,72.99
2023-03-29T06:28:43.407Z,77.67
2023-03-29T06:29:43.459Z,68.96
2023-03-29T06:30:43.399Z,67.03
2023-03-29T06:31:43.414Z,67.19
2023-03-29T06:32:43.455Z,67.35
2023-03-29T06:33:43.379Z,64.78
2023-03-29T06:34:43.360Z,66.87
2023-03-29T06:35:43.404Z,73.32
2023-03-29T06:36:43.367Z,68.16
2023-03-29T06:37:43.383Z,66.71
2023-03-29T06:38:43.341Z,65.10
2023-03-29T06:39:43.355Z,64.29
2023-03-29T06:40:43.333Z,64.13
2023-03-29T06:41:43.338Z,70.25
2023-03-29T06:42:43.315Z,65.10
2023-03-29T06:43:43.293Z,65.26
2023-03-29T06:44:43.294Z,69.13
2023-03-29T06:45:43.288Z,65.90
2023-03-29T06:46:43.362Z,64.94
2023-03-29T06:47:43.402Z,63.33
2023-03-29T06:48:43.300Z,70.09
2023-03-29T06:49:43.250Z,70.90
2023-03-29T06:50:43.276Z,64.61
2023-03-29T06:51:43.241Z,66.23
2023-03-29T06:52:43.244Z,66.06
2023-03-29T06:53:43.295Z,62.68
2023-03-29T06:54:43.224Z,69.29
2023-03-29T06:55:43.265Z,70.74
2023-03-29T06:56:43.243Z,65.58
2023-03-29T06:57:43.235Z,75.57
2023-03-29T06:58:43.214Z,67.19
2023-03-29T06:59:43.233Z,64.29
2023-03-29T07:00:43.194Z,65.10
2023-03-29T07:01:43.260Z,67.19
2023-03-29T07:02:43.246Z,67.19
2023-03-29T07:03:44.767Z,65.26
2023-03-29T07:04:43.278Z,62.84
2023-03-29T07:05:43.182Z,67.51
2023-03-29T07:06:43.126Z,64.61
2023-03-29T07:07:43.137Z,63.81
2023-03-29T07:08:43.119Z,66.71
2023-03-29T07:09:43.120Z,71.22
2023-03-29T07:10:43.132Z,65.26
2023-03-29T07:11:43.483Z,66.23
2023-03-29T07:12:43.113Z,64.61
2023-03-29T07:13:43.121Z,68.80
2023-03-29T07:14:45.144Z,66.55
2023-03-29T07:15:43.063Z,65.10
2023-03-29T07:16:43.141Z,61.71
2023-03-29T07:17:43.403Z,65.42
2023-03-29T07:18:43.129Z,64.29
2023-03-29T07:19:43.048Z,61.07
2023-03-29T07:20:43.073Z,64.45
2023-03-29T07:21:43.030Z,64.61
2023-03-29T07:22:43.020Z,63.81
2023-03-29T07:23:43.089Z,64.45
2023-03-29T07:24:43.021Z,69.93
2023-03-29T07:25:43.030Z,81.05
2023-03-29T07:26:52.269Z,67.51
2023-03-29T07:27:44.006Z,63.49
2023-03-29T07:28:43.009Z,63.49
2023-03-29T07:29:42.997Z,65.58
2023-03-29T07:30:42.982Z,64.61
2023-03-29T07:31:42.995Z,64.78
2023-03-29T07:32:43.042Z,65.42
2023-03-29T07:33:43.146Z,66.39
2023-03-29T07:34:42.990Z,67.19
2023-03-29T07:35:42.986Z,67.84
2023-03-29T07:36:42.920Z,65.26
2023-03-29T07:37:43.055Z,67.03
2023-03-29T07:38:42.958Z,60.42
2023-03-29T07:39:42.901Z,65.10
2023-03-29T07:40:42.902Z,63.81
2023-03-29T07:41:42.921Z,64.45
2023-03-29T07:42:42.885Z,64.61
2023-03-29T07:43:42.878Z,63.65
2023-03-29T07:44:42.860Z,64.29
2023-03-29T07:45:42.847Z,64.78
2023-03-29T07:46:42.861Z,65.42
2023-03-29T07:47:42.888Z,63.00
2023-03-29T07:48:42.827Z,64.13
2023-03-29T07:49:42.823Z,63.33
2023-03-29T07:50:42.836Z,66.39
2023-03-29T07:51:42.828Z,65.10
2023-03-29T07:52:42.807Z,64.61
2023-03-29T07:53:42.871Z,71.38
2023-03-29T07:54:42.796Z,63.65
2023-03-29T07:55:44.642Z,63.81
2023-03-29T07:56:42.823Z,62.36
2023-03-29T07:57:42.765Z,66.39
2023-03-29T07:58:42.748Z,60.42
2023-03-29T07:59:42.778Z,61.71
2023-03-29T08:00:42.796Z,64.13
2023-03-29T08:01:42.724Z,76.22
2023-03-29T08:02:42.746Z,62.04
2023-03-29T08:03:42.815Z,63.49
2023-03-29T08:04:42.755Z,63.33
2023-03-29T08:05:42.820Z,66.55
2023-03-29T08:06:42.695Z,65.26
2023-03-29T08:07:42.684Z,67.19
2023-03-29T08:08:42.712Z,66.39
2023-03-29T08:09:42.651Z,65.58
2023-03-29T08:10:42.722Z,70.42
2023-03-29T08:11:42.694Z,70.58
2023-03-29T08:12:42.658Z,61.55
2023-03-29T08:13:42.658Z,64.61
2023-03-29T08:14:42.645Z,63.33
2023-03-29T08:15:42.637Z,64.61
2023-03-29T08:16:42.671Z,61.71
2023-03-29T08:17:42.686Z,63.00
2023-03-29T08:18:42.599Z,64.29
2023-03-29T08:19:50.822Z,62.84
2023-03-29T08:20:43.600Z,65.10
2023-03-29T08:21:42.584Z,65.42
2023-03-29T08:22:42.578Z,72.51
2023-03-29T08:23:42.998Z,62.68
2023-03-29T08:24:42.572Z,64.45
2023-03-29T08:25:42.585Z,65.42
2023-03-29T08:26:42.555Z,64.29
2023-03-29T08:27:42.551Z,63.16
2023-03-29T08:28:42.558Z,66.39
2023-03-29T08:29:42.582Z,66.23
2023-03-29T08:30:42.555Z,73.15
2023-03-29T08:31:42.523Z,76.22
2023-03-29T08:32:42.558Z,76.22
2023-03-29T08:33:42.521Z,72.51
2023-03-29T08:34:42.489Z,76.05
2023-03-29T08:35:42.553Z,73.80
2023-03-29T08:36:42.481Z,70.25
2023-03-29T08:37:42.478Z,61.71
2023-03-29T08:38:42.458Z,62.68
2023-03-29T08:39:42.529Z,63.16
2023-03-29T08:40:42.457Z,61.87
2023-03-29T08:41:42.549Z,69.45
2023-03-29T08:42:42.449Z,65.90
2023-03-29T08:43:42.438Z,62.68
2023-03-29T08:44:42.430Z,66.71
2023-03-29T08:45:42.423Z,65.42
2023-03-29T08:46:42.527Z,63.81
2023-03-29T08:47:42.576Z,62.68
2023-03-29T08:48:42.498Z,64.45
2023-03-29T08:49:42.406Z,63.97
2023-03-29T08:50:42.390Z,64.13
2023-03-29T08:51:42.399Z,63.00
2023-03-29T08:52:42.362Z,63.81
2023-03-29T08:53:42.389Z,64.94
2023-03-29T08:54:42.349Z,65.42
2023-03-29T08:55:42.364Z,65.58
2023-03-29T08:56:42.366Z,65.58
2023-03-29T08:57:42.326Z,66.55
2023-03-29T08:58:42.367Z,62.36
2023-03-29T08:59:42.367Z,61.87
2023-03-29T09:00:42.306Z,66.06
2023-03-29T09:01:42.321Z,62.52
2023-03-29T09:02:42.336Z,62.20
2023-03-29T09:03:42.341Z,60.10
2023-03-29T09:04:42.320Z,60.75
2023-03-29T09:05:42.306Z,62.68
2023-03-29T09:06:42.281Z,74.93
2023-03-29T09:07:42.272Z,63.97
2023-03-29T09:08:42.257Z,64.78
2023-03-29T09:09:42.247Z,63.33
2023-03-29T09:10:42.236Z,63.65
2023-03-29T09:11:42.267Z,70.42
2023-03-29T09:12:42.272Z,63.81
2023-03-29T09:13:42.283Z,62.52
2023-03-29T09:14:42.204Z,61.71
2023-03-29T09:15:42.225Z,62.68
2023-03-29T09:16:42.192Z,64.61
2023-03-29T09:17:42.271Z,63.33
2023-03-29T09:18:42.222Z,62.04
2023-03-29T09:19:42.194Z,62.36
2023-03-29T09:20:42.160Z,61.39
2023-03-29T09:21:42.694Z,62.68
2023-03-29T09:22:42.147Z,63.65
2023-03-29T09:23:42.604Z,64.94
2023-03-29T09:24:42.182Z,64.45
2023-03-29T09:25:52.591Z,63.81
2023-03-29T09:26:43.186Z,60.75
2023-03-29T09:27:42.128Z,64.61
2023-03-29T09:28:42.115Z,65.74
2023-03-29T09:29:42.181Z,67.19
2023-03-29T09:30:42.105Z,66.39
2023-03-29T09:31:42.148Z,64.61
2023-03-29T09:32:42.143Z,64.13
2023-03-29T09:33:42.079Z,67.35
2023-03-29T09:34:42.075Z,65.42
2023-03-29T09:35:42.136Z,67.19
2023-03-29T09:36:42.870Z,68.48
2023-03-29T09:37:42.055Z,66.39
2023-03-29T09:38:42.045Z,65.90
2023-03-29T09:39:42.019Z,65.10
2023-03-29T09:40:42.063Z,65.42
2023-03-29T09:41:42.046Z,67.84
2023-03-29T09:42:42.000Z,65.26
2023-03-29T09:43:42.018Z,66.39
2023-03-29T09:44:42.009Z,64.45
2023-03-29T09:45:42.021Z,69.77
2023-03-29T09:46:41.981Z,64.29
2023-03-29T09:47:42.127Z,63.65
2023-03-29T09:48:41.972Z,63.49
2023-03-29T09:49:41.969Z,62.68
2023-03-29T09:50:41.971Z,64.94
2023-03-29T09:51:41.944Z,65.10
2023-03-29T09:52:41.962Z,62.52
2023-03-29T09:53:41.976Z,62.84
2023-03-29T09:54:41.921Z,63.97
2023-03-29T09:55:41.939Z,61.23
2023-03-29T09:56:41.987Z,62.20
2023-03-29T09:57:41.898Z,63.81
2023-03-29T09:58:41.922Z,76.22
2023-03-29T09:59:41.946Z,67.03
2023-03-29T10:00:41.901Z,63.97
2023-03-29T10:01:41.922Z,64.61
2023-03-29T10:02:41.892Z,65.74
2023-03-29T10:03:41.911Z,66.87
2023-03-29T10:04:41.918Z,65.26
2023-03-29T10:05:41.940Z,67.68
2023-03-29T10:06:41.843Z,64.29
2023-03-29T10:07:41.839Z,66.23
2023-03-29T10:08:41.870Z,63.97
2023-03-29T10:09:41.837Z,63.16
2023-03-29T10:10:41.792Z,67.68
2023-03-29T10:11:41.849Z,62.84
2023-03-29T10:12:41.819Z,62.36
2023-03-29T10:13:41.851Z,66.55
2023-03-29T10:14:41.792Z,62.20
2023-03-29T10:15:41.791Z,63.33
2023-03-29T10:16:41.860Z,61.23
2023-03-29T10:17:41.812Z,64.78
2023-03-29T10:18:41.793Z,64.94
2023-03-29T10:19:41.812Z,66.87
2023-03-29T10:20:41.756Z,63.65
2023-03-29T10:21:41.750Z,61.55
2023-03-29T10:22:41.750Z,61.87
2023-03-29T10:23:41.778Z,68.80
2023-03-29T10:24:41.746Z,64.94
2023-03-29T10:25:42.798Z,64.13
2023-03-29T10:26:41.717Z,61.07
2023-03-29T10:27:41.705Z,67.84
2023-03-29T10:28:41.706Z,62.04
2023-03-29T10:29:41.919Z,61.87
2023-03-29T10:30:41.672Z,67.03
2023-03-29T10:31:41.753Z,64.78
2023-03-29T10:32:41.710Z,69.29
2023-03-29T10:33:41.657Z,63.81
2023-03-29T10:34:41.627Z,64.29
2023-03-29T10:35:41.791Z,64.61
2023-03-29T10:36:41.619Z,71.38
2023-03-29T10:37:41.611Z,67.84
2023-03-29T10:38:41.622Z,61.55
2023-03-29T10:39:41.681Z,62.52
2023-03-29T10:40:41.596Z,61.71
2023-03-29T10:41:41.641Z,64.78
2023-03-29T10:42:41.602Z,63.00
2023-03-29T10:43:41.573Z,70.74
2023-03-29T10:44:41.594Z,76.05
2023-03-29T10:45:41.568Z,65.42
2023-03-29T10:46:41.630Z,64.29
2023-03-29T10:47:41.611Z,62.04
2023-03-29T10:48:41.600Z,64.45
2023-03-29T10:49:41.551Z,71.22
2023-03-29T10:50:41.530Z,60.42
2023-03-29T10:51:41.501Z,62.52
2023-03-29T10:52:41.499Z,61.55
2023-03-29T10:53:41.574Z,64.29
2023-03-29T10:54:41.512Z,63.49
2023-03-29T10:55:41.464Z,64.13
2023-03-29T10:56:41.669Z,67.19
2023-03-29T10:57:41.465Z,65.42
2023-03-29T10:58:41.459Z,64.61
2023-03-29T10:59:41.592Z,63.65
2023-03-29T11:00:41.428Z,64.61
2023-03-29T11:01:41.518Z,62.20
2023-03-29T11:02:41.644Z,62.04
2023-03-29T11:03:41.546Z,64.94
2023-03-29T11:04:41.504Z,63.81
2023-03-29T11:05:41.539Z,61.55
2023-03-29T11:06:41.472Z,61.87
2023-03-29T11:07:42.479Z,61.55
2023-03-29T11:08:41.387Z,62.20
2023-03-29T11:09:41.442Z,61.23
2023-03-29T11:10:41.361Z,63.81
2023-03-29T11:11:41.438Z,62.68
2023-03-29T11:12:41.330Z,60.26
2023-03-29T11:13:41.399Z,61.39
2023-03-29T11:14:41.356Z,64.78
2023-03-29T11:15:41.371Z,63.49
2023-03-29T11:16:41.314Z,64.61
2023-03-29T11:17:41.410Z,62.36
2023-03-29T11:18:41.333Z,62.36
2023-03-29T11:19:41.371Z,60.91
2023-03-29T11:20:41.380Z,62.20
2023-03-29T11:21:41.288Z,61.71
2023-03-29T11:22:41.305Z,62.84
2023-03-29T11:23:41.331Z,60.91
2023-03-29T11:24:41.282Z,68.00
2023-03-29T11:25:41.348Z,60.42
2023-03-29T11:26:42.369Z,63.65
2023-03-29T11:27:41.340Z,58.81
2023-03-29T11:28:41.357Z,60.26
2023-03-29T11:29:41.519Z,63.65
2023-03-29T11:30:41.225Z,60.91
2023-03-29T11:31:41.328Z,65.26
2023-03-29T11:32:41.266Z,62.04
2023-03-29T11:33:41.268Z,69.77
2023-03-29T11:34:41.208Z,63.65
2023-03-29T11:35:41.412Z,64.45
2023-03-29T11:36:41.197Z,66.06
2023-03-29T11:37:41.189Z,61.55
2023-03-29T11:38:43.284Z,69.61
2023-03-29T11:39:41.209Z,65.58
2023-03-29T11:40:41.150Z,66.55
2023-03-29T11:41:41.236Z,68.00
2023-03-29T11:42:41.148Z,65.10
2023-03-29T11:43:41.143Z,62.52
2023-03-29T11:44:41.129Z,60.91
2023-03-29T11:45:41.144Z,64.78
2023-03-29T11:46:41.190Z,65.74
2023-03-29T11:47:41.316Z,71.06
2023-03-29T11:48:41.151Z,63.33
2023-03-29T11:49:41.111Z,64.45
2023-03-29T11:50:41.099Z,66.39
2023-03-29T11:51:41.069Z,65.42
2023-03-29T11:52:41.153Z,66.55
2023-03-29T11:53:41.127Z,76.22
2023-03-29T11:54:41.085Z,63.81
2023-03-29T11:55:41.088Z,65.58
2023-03-29T11:56:41.094Z,64.45
2023-03-29T11:57:41.117Z,64.94
2023-03-29T11:58:41.156Z,68.64
2023-03-29T11:59:41.187Z,63.97
2023-03-29T12:00:41.013Z,68.16
2023-03-29T12:01:41.016Z,64.78
2023-03-29T12:02:41.226Z,64.78
2023-03-29T12:03:41.100Z,63.49
2023-03-29T12:04:40.991Z,75.25
2023-03-29T12:05:41.039Z,65.26
2023-03-29T12:06:40.991Z,66.23
2023-03-29T12:07:40.965Z,67.19
2023-03-29T12:08:40.968Z,65.90
2023-03-29T12:09:40.990Z,68.16
2023-03-29T12:10:40.935Z,71.70
2023-03-29T12:11:40.965Z,72.83
2023-03-29T12:12:40.936Z,75.25
2023-03-29T12:13:40.939Z,68.32
2023-03-29T12:14:40.928Z,66.23
2023-03-29T12:15:40.908Z,67.51
2023-03-29T12:16:40.985Z,65.10
2023-03-29T12:17:40.992Z,65.42
2023-03-29T12:18:40.949Z,62.52
2023-03-29T12:19:43.576Z,68.48
2023-03-29T12:20:40.899Z,61.39
2023-03-29T12:21:40.865Z,65.10
2023-03-29T12:22:40.890Z,62.68
2023-03-29T12:23:41.068Z,61.23
2023-03-29T12:24:40.880Z,62.52
2023-03-29T12:25:40.895Z,62.84
2023-03-29T12:26:40.869Z,64.78
2023-03-29T12:27:40.874Z,62.84
2023-03-29T12:28:40.875Z,65.42
2023-03-29T12:29:40.892Z,68.96
2023-03-29T12:30:40.815Z,66.23
2023-03-29T12:31:40.872Z,64.61
2023-03-29T12:32:40.853Z,65.42
2023-03-29T12:33:40.829Z,67.03
2023-03-29T12:34:40.770Z,63.97
2023-03-29T12:35:41.282Z,60.75
2023-03-29T12:36:40.749Z,71.70
2023-03-29T12:37:40.813Z,63.81
2023-03-29T12:38:40.751Z,62.36
2023-03-29T12:39:40.750Z,63.97
2023-03-29T12:40:40.763Z,61.55
2023-03-29T12:41:40.815Z,63.49
2023-03-29T12:42:40.745Z,62.04
2023-03-29T12:43:40.757Z,67.51
2023-03-29T12:44:40.710Z,61.39
2023-03-29T12:45:40.792Z,63.81
2023-03-29T12:46:40.738Z,64.78
2023-03-29T12:47:40.743Z,63.00
2023-03-29T12:48:40.692Z,62.68
2023-03-29T12:49:40.700Z,64.29
2023-03-29T12:50:40.678Z,68.64
2023-03-29T12:51:40.672Z,62.04
2023-03-29T12:52:40.653Z,62.04